sensor_id;sensor_type;location;lat;lon;timestamp;P1;durP1;ratioP1;P2;durP2;ratioP2
54871;SDS011;43914;57.680;11.982;2023-02-04T00:00:34;9.50;;;4.50;;
54871;SDS011;43914;57.680;11.982;2023-02-04T00:03:02;9.80;;;4.50;;
54871;SDS011;43914;57.680;11.982;2023-02-04T00:05:31;10.60;;;4.70;;
54871;SDS011;43914;57.680;11.982;2023-02-04T00:08:04;10.00;;;4.00;;
54871;SDS011;43914;57.680;11.982;2023-02-04T00:10:33;7.20;;;3.20;;
54871;SDS011;43914;57.680;11.982;2023-02-04T00:12:59;8.40;;;3.10;;
54871;SDS011;43914;57.680;11.982;2023-02-04T00:15:24;9.90;;;3.40;;
54871;SDS011;43914;57.680;11.982;2023-02-04T00:17:50;7.70;;;2.90;;
54871;SDS011;43914;57.680;11.982;2023-02-04T00:20:37;6.90;;;2.30;;
54871;SDS011;43914;57.680;11.982;2023-02-04T00:23:03;8.10;;;2.70;;
54871;SDS011;43914;57.680;11.982;2023-02-04T00:25:28;6.10;;;2.10;;
54871;SDS011;43914;57.680;11.982;2023-02-04T00:27:54;6.40;;;2.20;;
54871;SDS011;43914;57.680;11.982;2023-02-04T00:30:20;6.80;;;2.50;;
54871;SDS011;43914;57.680;11.982;2023-02-04T00:32:45;5.50;;;2.20;;
54871;SDS011;43914;57.680;11.982;2023-02-04T00:35:18;6.50;;;2.30;;
54871;SDS011;43914;57.680;11.982;2023-02-04T00:37:44;6.80;;;2.50;;
54871;SDS011;43914;57.680;11.982;2023-02-04T00:40:10;6.30;;;2.40;;
54871;SDS011;43914;57.680;11.982;2023-02-04T00:42:41;6.80;;;2.40;;
54871;SDS011;43914;57.680;11.982;2023-02-04T00:45:07;7.20;;;2.60;;
54871;SDS011;43914;57.680;11.982;2023-02-04T00:47:34;7.40;;;2.50;;
54871;SDS011;43914;57.680;11.982;2023-02-04T00:49:59;8.90;;;3.30;;
54871;SDS011;43914;57.680;11.982;2023-02-04T00:52:28;8.20;;;3.20;;
54871;SDS011;43914;57.680;11.982;2023-02-04T00:54:54;8.30;;;3.40;;
54871;SDS011;43914;57.680;11.982;2023-02-04T00:57:19;7.10;;;3.10;;
54871;SDS011;43914;57.680;11.982;2023-02-04T00:59:44;7.40;;;2.80;;
54871;SDS011;43914;57.680;11.982;2023-02-04T01:02:10;8.20;;;3.30;;
54871;SDS011;43914;57.680;11.982;2023-02-04T01:04:36;8.70;;;3.10;;
54871;SDS011;43914;57.680;11.982;2023-02-04T01:07:02;10.20;;;3.10;;
54871;SDS011;43914;57.680;11.982;2023-02-04T01:09:27;7.60;;;3.00;;
54871;SDS011;43914;57.680;11.982;2023-02-04T01:11:53;10.10;;;3.80;;
54871;SDS011;43914;57.680;11.982;2023-02-04T01:14:19;8.10;;;3.50;;
54871;SDS011;43914;57.680;11.982;2023-02-04T01:16:44;8.20;;;3.10;;
54871;SDS011;43914;57.680;11.982;2023-02-04T01:19:11;9.50;;;3.30;;
54871;SDS011;43914;57.680;11.982;2023-02-04T01:21:40;8.80;;;3.60;;
54871;SDS011;43914;57.680;11.982;2023-02-04T01:24:07;9.50;;;3.20;;
54871;SDS011;43914;57.680;11.982;2023-02-04T01:26:33;8.50;;;3.10;;
54871;SDS011;43914;57.680;11.982;2023-02-04T01:28:58;9.60;;;3.50;;
54871;SDS011;43914;57.680;11.982;2023-02-04T01:31:24;7.70;;;2.50;;
54871;SDS011;43914;57.680;11.982;2023-02-04T01:33:50;6.90;;;2.60;;
54871;SDS011;43914;57.680;11.982;2023-02-04T01:36:17;8.30;;;2.70;;
54871;SDS011;43914;57.680;11.982;2023-02-04T01:38:46;8.10;;;2.60;;
54871;SDS011;43914;57.680;11.982;2023-02-04T01:41:12;6.90;;;2.50;;
54871;SDS011;43914;57.680;11.982;2023-02-04T01:43:39;7.80;;;2.60;;
54871;SDS011;43914;57.680;11.982;2023-02-04T01:46:05;7.20;;;2.20;;
54871;SDS011;43914;57.680;11.982;2023-02-04T01:48:31;8.10;;;2.60;;
54871;SDS011;43914;57.680;11.982;2023-02-04T01:51:01;8.20;;;2.70;;
54871;SDS011;43914;57.680;11.982;2023-02-04T01:53:29;9.40;;;2.20;;
54871;SDS011;43914;57.680;11.982;2023-02-04T01:55:56;7.20;;;2.60;;
54871;SDS011;43914;57.680;11.982;2023-02-04T01:58:21;6.70;;;2.30;;
54871;SDS011;43914;57.680;11.982;2023-02-04T02:00:47;7.30;;;2.30;;
54871;SDS011;43914;57.680;11.982;2023-02-04T02:03:13;7.30;;;2.30;;
54871;SDS011;43914;57.680;11.982;2023-02-04T02:05:42;7.50;;;2.40;;
54871;SDS011;43914;57.680;11.982;2023-02-04T02:08:14;7.00;;;2.10;;
54871;SDS011;43914;57.680;11.982;2023-02-04T02:10:49;7.00;;;2.40;;
54871;SDS011;43914;57.680;11.982;2023-02-04T02:13:16;7.70;;;2.30;;
54871;SDS011;43914;57.680;11.982;2023-02-04T02:15:43;6.10;;;2.40;;
54871;SDS011;43914;57.680;11.982;2023-02-04T02:18:09;6.50;;;2.00;;
54871;SDS011;43914;57.680;11.982;2023-02-04T02:20:35;6.10;;;2.00;;
54871;SDS011;43914;57.680;11.982;2023-02-04T02:23:19;7.10;;;2.40;;
54871;SDS011;43914;57.680;11.982;2023-02-04T02:26:09;6.60;;;2.00;;
54871;SDS011;43914;57.680;11.982;2023-02-04T02:28:34;6.90;;;1.90;;
54871;SDS011;43914;57.680;11.982;2023-02-04T02:31:00;7.40;;;2.30;;
54871;SDS011;43914;57.680;11.982;2023-02-04T02:33:25;5.90;;;2.10;;
54871;SDS011;43914;57.680;11.982;2023-02-04T02:35:51;5.70;;;1.80;;
54871;SDS011;43914;57.680;11.982;2023-02-04T02:38:17;5.80;;;1.80;;
54871;SDS011;43914;57.680;11.982;2023-02-04T02:40:44;7.30;;;2.20;;
54871;SDS011;43914;57.680;11.982;2023-02-04T02:43:18;5.90;;;2.10;;
54871;SDS011;43914;57.680;11.982;2023-02-04T02:45:47;7.40;;;1.90;;
54871;SDS011;43914;57.680;11.982;2023-02-04T02:48:14;6.20;;;1.80;;
54871;SDS011;43914;57.680;11.982;2023-02-04T02:50:39;11.00;;;2.30;;
54871;SDS011;43914;57.680;11.982;2023-02-04T02:53:16;8.60;;;2.00;;
54871;SDS011;43914;57.680;11.982;2023-02-04T02:55:43;6.10;;;2.00;;
54871;SDS011;43914;57.680;11.982;2023-02-04T02:58:14;7.10;;;1.80;;
54871;SDS011;43914;57.680;11.982;2023-02-04T03:00:43;7.00;;;1.80;;
54871;SDS011;43914;57.680;11.982;2023-02-04T03:03:11;6.40;;;2.10;;
54871;SDS011;43914;57.680;11.982;2023-02-04T03:05:44;6.60;;;1.80;;
54871;SDS011;43914;57.680;11.982;2023-02-04T03:08:13;7.80;;;2.10;;
54871;SDS011;43914;57.680;11.982;2023-02-04T03:10:40;6.60;;;1.90;;
54871;SDS011;43914;57.680;11.982;2023-02-04T03:13:08;6.10;;;1.70;;
54871;SDS011;43914;57.680;11.982;2023-02-04T03:15:35;6.00;;;1.60;;
54871;SDS011;43914;57.680;11.982;2023-02-04T03:18:01;5.10;;;1.50;;
54871;SDS011;43914;57.680;11.982;2023-02-04T03:20:28;6.50;;;1.90;;
54871;SDS011;43914;57.680;11.982;2023-02-04T03:22:55;6.00;;;1.70;;
54871;SDS011;43914;57.680;11.982;2023-02-04T03:25:24;5.80;;;1.80;;
54871;SDS011;43914;57.680;11.982;2023-02-04T03:27:52;5.00;;;1.80;;
54871;SDS011;43914;57.680;11.982;2023-02-04T03:30:38;7.80;;;1.90;;
54871;SDS011;43914;57.680;11.982;2023-02-04T03:33:04;6.50;;;1.90;;
54871;SDS011;43914;57.680;11.982;2023-02-04T03:35:29;6.60;;;1.80;;
54871;SDS011;43914;57.680;11.982;2023-02-04T03:37:55;7.00;;;1.80;;
54871;SDS011;43914;57.680;11.982;2023-02-04T03:40:20;6.50;;;2.10;;
54871;SDS011;43914;57.680;11.982;2023-02-04T03:42:47;5.30;;;1.60;;
54871;SDS011;43914;57.680;11.982;2023-02-04T03:45:12;6.60;;;1.90;;
54871;SDS011;43914;57.680;11.982;2023-02-04T03:47:38;5.20;;;1.70;;
54871;SDS011;43914;57.680;11.982;2023-02-04T03:50:04;8.90;;;2.00;;
54871;SDS011;43914;57.680;11.982;2023-02-04T03:52:29;7.50;;;2.00;;
54871;SDS011;43914;57.680;11.982;2023-02-04T03:54:55;7.30;;;2.00;;
54871;SDS011;43914;57.680;11.982;2023-02-04T03:57:21;7.50;;;1.90;;
54871;SDS011;43914;57.680;11.982;2023-02-04T03:59:46;6.50;;;1.70;;
54871;SDS011;43914;57.680;11.982;2023-02-04T04:02:12;6.00;;;1.70;;
54871;SDS011;43914;57.680;11.982;2023-02-04T04:04:37;6.40;;;1.80;;
54871;SDS011;43914;57.680;11.982;2023-02-04T04:07:03;6.50;;;1.90;;
54871;SDS011;43914;57.680;11.982;2023-02-04T04:09:29;5.60;;;1.50;;
54871;SDS011;43914;57.680;11.982;2023-02-04T04:11:54;4.90;;;1.60;;
54871;SDS011;43914;57.680;11.982;2023-02-04T04:14:19;5.40;;;1.50;;
54871;SDS011;43914;57.680;11.982;2023-02-04T04:16:45;7.40;;;2.10;;
54871;SDS011;43914;57.680;11.982;2023-02-04T04:19:11;6.40;;;1.90;;
54871;SDS011;43914;57.680;11.982;2023-02-04T04:21:36;8.30;;;2.50;;
54871;SDS011;43914;57.680;11.982;2023-02-04T04:24:02;6.20;;;1.60;;
54871;SDS011;43914;57.680;11.982;2023-02-04T04:26:27;5.90;;;1.60;;
54871;SDS011;43914;57.680;11.982;2023-02-04T04:28:53;6.50;;;1.80;;
54871;SDS011;43914;57.680;11.982;2023-02-04T04:31:18;6.50;;;2.00;;
54871;SDS011;43914;57.680;11.982;2023-02-04T04:33:44;7.90;;;2.00;;
54871;SDS011;43914;57.680;11.982;2023-02-04T04:36:09;9.20;;;2.00;;
54871;SDS011;43914;57.680;11.982;2023-02-04T04:38:35;7.90;;;2.30;;
54871;SDS011;43914;57.680;11.982;2023-02-04T04:41:00;7.20;;;1.90;;
54871;SDS011;43914;57.680;11.982;2023-02-04T04:43:26;8.10;;;2.20;;
54871;SDS011;43914;57.680;11.982;2023-02-04T04:45:54;6.10;;;1.90;;
54871;SDS011;43914;57.680;11.982;2023-02-04T04:48:20;8.10;;;2.00;;
54871;SDS011;43914;57.680;11.982;2023-02-04T04:50:46;6.50;;;1.80;;
54871;SDS011;43914;57.680;11.982;2023-02-04T04:53:11;6.30;;;1.90;;
54871;SDS011;43914;57.680;11.982;2023-02-04T04:55:37;8.20;;;1.80;;
54871;SDS011;43914;57.680;11.982;2023-02-04T04:58:03;7.30;;;2.10;;
54871;SDS011;43914;57.680;11.982;2023-02-04T05:00:29;6.60;;;2.00;;
54871;SDS011;43914;57.680;11.982;2023-02-04T05:02:55;4.60;;;1.50;;
54871;SDS011;43914;57.680;11.982;2023-02-04T05:05:20;5.80;;;1.90;;
54871;SDS011;43914;57.680;11.982;2023-02-04T05:07:46;6.90;;;2.00;;
54871;SDS011;43914;57.680;11.982;2023-02-04T05:10:11;6.00;;;1.90;;
54871;SDS011;43914;57.680;11.982;2023-02-04T05:12:37;6.70;;;1.60;;
54871;SDS011;43914;57.680;11.982;2023-02-04T05:15:02;5.60;;;1.60;;
54871;SDS011;43914;57.680;11.982;2023-02-04T05:17:28;7.00;;;1.90;;
54871;SDS011;43914;57.680;11.982;2023-02-04T05:19:54;5.20;;;1.60;;
54871;SDS011;43914;57.680;11.982;2023-02-04T05:22:19;7.80;;;2.20;;
54871;SDS011;43914;57.680;11.982;2023-02-04T05:24:45;7.10;;;1.70;;
54871;SDS011;43914;57.680;11.982;2023-02-04T05:27:10;6.20;;;1.90;;
54871;SDS011;43914;57.680;11.982;2023-02-04T05:29:36;5.30;;;1.60;;
54871;SDS011;43914;57.680;11.982;2023-02-04T05:32:01;7.40;;;2.00;;
54871;SDS011;43914;57.680;11.982;2023-02-04T05:34:27;6.00;;;1.80;;
54871;SDS011;43914;57.680;11.982;2023-02-04T05:36:52;5.60;;;1.60;;
54871;SDS011;43914;57.680;11.982;2023-02-04T05:39:18;5.10;;;1.70;;
54871;SDS011;43914;57.680;11.982;2023-02-04T05:41:44;6.10;;;1.80;;
54871;SDS011;43914;57.680;11.982;2023-02-04T05:44:09;5.70;;;1.50;;
54871;SDS011;43914;57.680;11.982;2023-02-04T05:46:35;6.80;;;1.80;;
54871;SDS011;43914;57.680;11.982;2023-02-04T05:49:01;6.80;;;1.70;;
54871;SDS011;43914;57.680;11.982;2023-02-04T05:51:26;5.10;;;1.60;;
54871;SDS011;43914;57.680;11.982;2023-02-04T05:53:53;6.20;;;1.90;;
54871;SDS011;43914;57.680;11.982;2023-02-04T05:56:18;5.20;;;1.60;;
54871;SDS011;43914;57.680;11.982;2023-02-04T05:58:44;5.50;;;1.60;;
54871;SDS011;43914;57.680;11.982;2023-02-04T06:01:09;5.70;;;1.70;;
54871;SDS011;43914;57.680;11.982;2023-02-04T06:03:34;6.80;;;1.90;;
54871;SDS011;43914;57.680;11.982;2023-02-04T06:06:00;5.40;;;1.60;;
54871;SDS011;43914;57.680;11.982;2023-02-04T06:08:26;5.60;;;1.50;;
54871;SDS011;43914;57.680;11.982;2023-02-04T06:10:51;5.40;;;1.60;;
54871;SDS011;43914;57.680;11.982;2023-02-04T06:13:17;5.20;;;1.60;;
54871;SDS011;43914;57.680;11.982;2023-02-04T06:15:42;7.00;;;1.80;;
54871;SDS011;43914;57.680;11.982;2023-02-04T06:18:08;7.20;;;1.80;;
54871;SDS011;43914;57.680;11.982;2023-02-04T06:20:35;7.20;;;1.40;;
54871;SDS011;43914;57.680;11.982;2023-02-04T06:23:00;5.20;;;1.50;;
54871;SDS011;43914;57.680;11.982;2023-02-04T06:25:26;6.80;;;1.60;;
54871;SDS011;43914;57.680;11.982;2023-02-04T06:27:51;6.70;;;2.00;;
54871;SDS011;43914;57.680;11.982;2023-02-04T06:30:17;4.50;;;1.40;;
54871;SDS011;43914;57.680;11.982;2023-02-04T06:32:43;4.60;;;1.60;;
54871;SDS011;43914;57.680;11.982;2023-02-04T06:35:09;5.60;;;1.60;;
54871;SDS011;43914;57.680;11.982;2023-02-04T06:37:37;5.80;;;1.80;;
54871;SDS011;43914;57.680;11.982;2023-02-04T06:40:03;6.20;;;2.50;;
54871;SDS011;43914;57.680;11.982;2023-02-04T06:42:29;7.20;;;1.90;;
54871;SDS011;43914;57.680;11.982;2023-02-04T06:44:55;5.50;;;1.80;;
54871;SDS011;43914;57.680;11.982;2023-02-04T06:47:21;7.50;;;1.90;;
54871;SDS011;43914;57.680;11.982;2023-02-04T06:49:47;5.60;;;1.60;;
54871;SDS011;43914;57.680;11.982;2023-02-04T06:52:12;6.30;;;1.90;;
54871;SDS011;43914;57.680;11.982;2023-02-04T06:54:38;9.00;;;1.80;;
54871;SDS011;43914;57.680;11.982;2023-02-04T06:57:03;7.40;;;2.00;;
54871;SDS011;43914;57.680;11.982;2023-02-04T06:59:35;6.30;;;2.00;;
54871;SDS011;43914;57.680;11.982;2023-02-04T07:02:03;5.00;;;1.90;;
54871;SDS011;43914;57.680;11.982;2023-02-04T07:04:30;7.50;;;2.10;;
54871;SDS011;43914;57.680;11.982;2023-02-04T07:06:56;6.30;;;1.70;;
54871;SDS011;43914;57.680;11.982;2023-02-04T07:09:21;5.20;;;1.60;;
54871;SDS011;43914;57.680;11.982;2023-02-04T07:11:47;7.00;;;1.60;;
54871;SDS011;43914;57.680;11.982;2023-02-04T07:14:12;7.30;;;2.30;;
54871;SDS011;43914;57.680;11.982;2023-02-04T07:16:38;8.60;;;1.80;;
54871;SDS011;43914;57.680;11.982;2023-02-04T07:19:04;6.20;;;1.80;;
54871;SDS011;43914;57.680;11.982;2023-02-04T07:21:29;5.70;;;1.70;;
54871;SDS011;43914;57.680;11.982;2023-02-04T07:23:55;6.80;;;2.00;;
54871;SDS011;43914;57.680;11.982;2023-02-04T07:26:21;7.00;;;2.00;;
54871;SDS011;43914;57.680;11.982;2023-02-04T07:28:47;6.70;;;1.90;;
54871;SDS011;43914;57.680;11.982;2023-02-04T07:31:13;5.60;;;1.70;;
54871;SDS011;43914;57.680;11.982;2023-02-04T07:33:39;7.50;;;1.80;;
54871;SDS011;43914;57.680;11.982;2023-02-04T07:36:04;6.90;;;1.90;;
54871;SDS011;43914;57.680;11.982;2023-02-04T07:38:30;6.60;;;1.90;;
54871;SDS011;43914;57.680;11.982;2023-02-04T07:40:55;6.80;;;2.10;;
54871;SDS011;43914;57.680;11.982;2023-02-04T07:43:21;7.40;;;2.30;;
54871;SDS011;43914;57.680;11.982;2023-02-04T07:45:47;5.90;;;2.20;;
54871;SDS011;43914;57.680;11.982;2023-02-04T07:48:12;6.00;;;1.90;;
54871;SDS011;43914;57.680;11.982;2023-02-04T07:50:38;7.40;;;2.10;;
54871;SDS011;43914;57.680;11.982;2023-02-04T07:53:03;6.80;;;1.90;;
54871;SDS011;43914;57.680;11.982;2023-02-04T07:55:29;7.10;;;2.30;;
54871;SDS011;43914;57.680;11.982;2023-02-04T07:57:55;7.30;;;2.30;;
54871;SDS011;43914;57.680;11.982;2023-02-04T08:00:20;7.60;;;2.10;;
54871;SDS011;43914;57.680;11.982;2023-02-04T08:02:46;7.30;;;2.10;;
54871;SDS011;43914;57.680;11.982;2023-02-04T08:05:12;6.90;;;2.30;;
54871;SDS011;43914;57.680;11.982;2023-02-04T08:07:38;6.50;;;2.20;;
54871;SDS011;43914;57.680;11.982;2023-02-04T08:10:04;8.30;;;2.50;;
54871;SDS011;43914;57.680;11.982;2023-02-04T08:12:31;6.80;;;1.90;;
54871;SDS011;43914;57.680;11.982;2023-02-04T08:14:57;7.10;;;2.20;;
54871;SDS011;43914;57.680;11.982;2023-02-04T08:17:23;7.50;;;2.20;;
54871;SDS011;43914;57.680;11.982;2023-02-04T08:19:48;6.00;;;2.00;;
54871;SDS011;43914;57.680;11.982;2023-02-04T08:22:14;8.50;;;2.50;;
54871;SDS011;43914;57.680;11.982;2023-02-04T08:24:39;8.20;;;2.30;;
54871;SDS011;43914;57.680;11.982;2023-02-04T08:27:05;8.50;;;2.60;;
54871;SDS011;43914;57.680;11.982;2023-02-04T08:29:31;8.90;;;2.20;;
54871;SDS011;43914;57.680;11.982;2023-02-04T08:31:56;7.90;;;2.40;;
54871;SDS011;43914;57.680;11.982;2023-02-04T08:34:22;9.90;;;2.20;;
54871;SDS011;43914;57.680;11.982;2023-02-04T08:36:47;8.20;;;2.40;;
54871;SDS011;43914;57.680;11.982;2023-02-04T08:39:13;8.80;;;2.30;;
54871;SDS011;43914;57.680;11.982;2023-02-04T08:41:38;7.80;;;2.40;;
54871;SDS011;43914;57.680;11.982;2023-02-04T08:44:04;9.70;;;2.70;;
54871;SDS011;43914;57.680;11.982;2023-02-04T08:46:30;9.80;;;2.10;;
54871;SDS011;43914;57.680;11.982;2023-02-04T08:48:55;9.00;;;2.90;;
54871;SDS011;43914;57.680;11.982;2023-02-04T08:51:21;7.90;;;2.70;;
54871;SDS011;43914;57.680;11.982;2023-02-04T08:53:46;12.20;;;3.00;;
54871;SDS011;43914;57.680;11.982;2023-02-04T08:56:12;8.20;;;2.60;;
54871;SDS011;43914;57.680;11.982;2023-02-04T08:58:42;9.20;;;2.30;;
54871;SDS011;43914;57.680;11.982;2023-02-04T09:01:08;8.40;;;2.40;;
54871;SDS011;43914;57.680;11.982;2023-02-04T09:03:35;8.30;;;2.50;;
54871;SDS011;43914;57.680;11.982;2023-02-04T09:06:02;8.50;;;2.20;;
54871;SDS011;43914;57.680;11.982;2023-02-04T09:08:29;10.70;;;2.70;;
54871;SDS011;43914;57.680;11.982;2023-02-04T09:10:55;11.60;;;3.00;;
54871;SDS011;43914;57.680;11.982;2023-02-04T09:13:20;10.00;;;2.70;;
54871;SDS011;43914;57.680;11.982;2023-02-04T09:15:46;8.50;;;2.40;;
54871;SDS011;43914;57.680;11.982;2023-02-04T09:18:11;6.70;;;2.20;;
54871;SDS011;43914;57.680;11.982;2023-02-04T09:20:42;8.20;;;2.90;;
54871;SDS011;43914;57.680;11.982;2023-02-04T09:23:09;9.60;;;2.80;;
54871;SDS011;43914;57.680;11.982;2023-02-04T09:25:39;14.00;;;3.60;;
54871;SDS011;43914;57.680;11.982;2023-02-04T09:28:07;12.70;;;3.20;;
54871;SDS011;43914;57.680;11.982;2023-02-04T09:30:35;10.40;;;2.90;;
54871;SDS011;43914;57.680;11.982;2023-02-04T09:33:02;7.70;;;2.70;;
54871;SDS011;43914;57.680;11.982;2023-02-04T09:35:27;11.30;;;2.60;;
54871;SDS011;43914;57.680;11.982;2023-02-04T09:37:53;9.60;;;2.50;;
54871;SDS011;43914;57.680;11.982;2023-02-04T09:40:19;8.30;;;2.50;;
54871;SDS011;43914;57.680;11.982;2023-02-04T09:42:46;9.60;;;3.00;;
54871;SDS011;43914;57.680;11.982;2023-02-04T09:45:17;9.70;;;2.60;;
54871;SDS011;43914;57.680;11.982;2023-02-04T09:47:46;10.20;;;3.20;;
54871;SDS011;43914;57.680;11.982;2023-02-04T09:50:15;8.60;;;2.80;;
54871;SDS011;43914;57.680;11.982;2023-02-04T09:52:43;10.00;;;2.90;;
54871;SDS011;43914;57.680;11.982;2023-02-04T09:55:12;9.40;;;2.60;;
54871;SDS011;43914;57.680;11.982;2023-02-04T09:57:38;8.80;;;2.90;;
54871;SDS011;43914;57.680;11.982;2023-02-04T10:00:14;10.20;;;2.40;;
54871;SDS011;43914;57.680;11.982;2023-02-04T10:02:43;8.20;;;2.50;;
54871;SDS011;43914;57.680;11.982;2023-02-04T10:05:12;8.70;;;2.80;;
54871;SDS011;43914;57.680;11.982;2023-02-04T10:07:43;9.10;;;2.70;;
54871;SDS011;43914;57.680;11.982;2023-02-04T10:10:17;8.00;;;2.20;;
54871;SDS011;43914;57.680;11.982;2023-02-04T10:12:45;7.80;;;2.10;;
54871;SDS011;43914;57.680;11.982;2023-02-04T10:15:12;8.00;;;2.30;;
54871;SDS011;43914;57.680;11.982;2023-02-04T10:17:40;9.30;;;2.80;;
54871;SDS011;43914;57.680;11.982;2023-02-04T10:20:14;13.30;;;2.40;;
54871;SDS011;43914;57.680;11.982;2023-02-04T10:22:40;6.10;;;2.00;;
54871;SDS011;43914;57.680;11.982;2023-02-04T10:25:16;6.30;;;1.90;;
54871;SDS011;43914;57.680;11.982;2023-02-04T10:27:54;8.40;;;2.00;;
54871;SDS011;43914;57.680;11.982;2023-02-04T10:30:29;7.50;;;2.00;;
54871;SDS011;43914;57.680;11.982;2023-02-04T10:33:11;6.30;;;1.90;;
54871;SDS011;43914;57.680;11.982;2023-02-04T10:38:13;15.20;;;4.30;;
54871;SDS011;43914;57.680;11.982;2023-02-04T10:40:40;11.60;;;3.70;;
54871;SDS011;43914;57.680;11.982;2023-02-04T10:43:10;8.40;;;3.00;;
54871;SDS011;43914;57.680;11.982;2023-02-04T10:45:46;10.40;;;4.00;;
54871;SDS011;43914;57.680;11.982;2023-02-04T10:48:24;11.40;;;3.10;;
54871;SDS011;43914;57.680;11.982;2023-02-04T10:50:51;7.90;;;2.20;;
54871;SDS011;43914;57.680;11.982;2023-02-04T10:53:18;8.20;;;2.30;;
54871;SDS011;43914;57.680;11.982;2023-02-04T10:56:04;11.20;;;2.20;;
54871;SDS011;43914;57.680;11.982;2023-02-04T10:58:38;7.50;;;1.90;;
54871;SDS011;43914;57.680;11.982;2023-02-04T11:01:09;7.50;;;1.90;;
54871;SDS011;43914;57.680;11.982;2023-02-04T11:03:36;7.60;;;1.80;;
54871;SDS011;43914;57.680;11.982;2023-02-04T11:06:07;9.20;;;2.00;;
54871;SDS011;43914;57.680;11.982;2023-02-04T11:08:40;7.80;;;2.00;;
54871;SDS011;43914;57.680;11.982;2023-02-04T11:11:08;7.30;;;2.10;;
54871;SDS011;43914;57.680;11.982;2023-02-04T11:18:55;7.70;;;2.00;;
54871;SDS011;43914;57.680;11.982;2023-02-04T11:21:28;8.80;;;2.10;;
54871;SDS011;43914;57.680;11.982;2023-02-04T11:26:36;7.30;;;2.20;;
54871;SDS011;43914;57.680;11.982;2023-02-04T11:37:04;6.60;;;1.80;;
54871;SDS011;43914;57.680;11.982;2023-02-04T11:39:41;6.30;;;2.00;;
54871;SDS011;43914;57.680;11.982;2023-02-04T11:42:22;6.40;;;1.90;;
54871;SDS011;43914;57.680;11.982;2023-02-04T11:44:50;6.70;;;2.10;;
54871;SDS011;43914;57.680;11.982;2023-02-04T11:47:21;9.00;;;2.00;;
54871;SDS011;43914;57.680;11.982;2023-02-04T11:49:55;7.10;;;1.80;;
54871;SDS011;43914;57.680;11.982;2023-02-04T11:52:24;6.80;;;1.80;;
54871;SDS011;43914;57.680;11.982;2023-02-04T11:54:59;6.60;;;1.60;;
54871;SDS011;43914;57.680;11.982;2023-02-04T11:57:24;4.90;;;1.30;;
54871;SDS011;43914;57.680;11.982;2023-02-04T11:59:51;6.20;;;1.80;;
54871;SDS011;43914;57.680;11.982;2023-02-04T12:02:19;5.70;;;1.60;;
54871;SDS011;43914;57.680;11.982;2023-02-04T12:04:57;4.80;;;1.40;;
54871;SDS011;43914;57.680;11.982;2023-02-04T12:07:43;5.70;;;1.60;;
54871;SDS011;43914;57.680;11.982;2023-02-04T12:12:51;6.00;;;1.70;;
54871;SDS011;43914;57.680;11.982;2023-02-04T12:15:23;8.20;;;2.60;;
54871;SDS011;43914;57.680;11.982;2023-02-04T12:18:03;7.60;;;1.90;;
54871;SDS011;43914;57.680;11.982;2023-02-04T12:20:34;9.20;;;2.20;;
54871;SDS011;43914;57.680;11.982;2023-02-04T12:23:01;7.80;;;1.80;;
54871;SDS011;43914;57.680;11.982;2023-02-04T12:25:27;6.10;;;1.70;;
54871;SDS011;43914;57.680;11.982;2023-02-04T12:27:53;5.90;;;1.50;;
54871;SDS011;43914;57.680;11.982;2023-02-04T12:30:23;5.50;;;1.40;;
54871;SDS011;43914;57.680;11.982;2023-02-04T12:32:50;4.90;;;1.30;;
54871;SDS011;43914;57.680;11.982;2023-02-04T12:35:16;7.00;;;1.50;;
54871;SDS011;43914;57.680;11.982;2023-02-04T12:37:43;7.50;;;1.70;;
54871;SDS011;43914;57.680;11.982;2023-02-04T12:40:13;6.80;;;1.50;;
54871;SDS011;43914;57.680;11.982;2023-02-04T12:45:10;6.60;;;1.50;;
54871;SDS011;43914;57.680;11.982;2023-02-04T12:47:36;6.50;;;1.50;;
54871;SDS011;43914;57.680;11.982;2023-02-04T12:50:03;5.80;;;1.60;;
54871;SDS011;43914;57.680;11.982;2023-02-04T12:52:33;6.00;;;1.70;;
54871;SDS011;43914;57.680;11.982;2023-02-04T12:54:59;6.20;;;1.40;;
54871;SDS011;43914;57.680;11.982;2023-02-04T12:57:25;6.20;;;1.30;;
54871;SDS011;43914;57.680;11.982;2023-02-04T12:59:51;7.60;;;1.70;;
54871;SDS011;43914;57.680;11.982;2023-02-04T13:02:16;5.80;;;1.50;;
54871;SDS011;43914;57.680;11.982;2023-02-04T13:04:42;6.70;;;1.40;;
54871;SDS011;43914;57.680;11.982;2023-02-04T13:07:08;3.80;;;1.30;;
54871;SDS011;43914;57.680;11.982;2023-02-04T13:09:35;5.50;;;1.40;;
54871;SDS011;43914;57.680;11.982;2023-02-04T13:12:01;5.60;;;1.40;;
54871;SDS011;43914;57.680;11.982;2023-02-04T13:14:27;6.50;;;1.80;;
54871;SDS011;43914;57.680;11.982;2023-02-04T13:17:02;5.00;;;1.40;;
54871;SDS011;43914;57.680;11.982;2023-02-04T13:19:28;6.00;;;1.10;;
54871;SDS011;43914;57.680;11.982;2023-02-04T13:21:56;5.90;;;1.50;;
54871;SDS011;43914;57.680;11.982;2023-02-04T13:24:22;6.30;;;1.60;;
54871;SDS011;43914;57.680;11.982;2023-02-04T13:26:48;6.30;;;1.90;;
54871;SDS011;43914;57.680;11.982;2023-02-04T13:29:14;6.80;;;1.70;;
54871;SDS011;43914;57.680;11.982;2023-02-04T13:31:40;6.40;;;1.70;;
54871;SDS011;43914;57.680;11.982;2023-02-04T13:34:05;5.80;;;1.70;;
54871;SDS011;43914;57.680;11.982;2023-02-04T13:36:31;6.50;;;1.70;;
54871;SDS011;43914;57.680;11.982;2023-02-04T13:38:57;5.20;;;1.50;;
54871;SDS011;43914;57.680;11.982;2023-02-04T13:41:24;5.00;;;1.50;;
54871;SDS011;43914;57.680;11.982;2023-02-04T13:43:50;8.20;;;2.10;;
54871;SDS011;43914;57.680;11.982;2023-02-04T13:46:16;6.70;;;1.80;;
54871;SDS011;43914;57.680;11.982;2023-02-04T13:48:42;6.50;;;1.80;;
54871;SDS011;43914;57.680;11.982;2023-02-04T13:51:08;5.30;;;1.60;;
54871;SDS011;43914;57.680;11.982;2023-02-04T13:53:34;7.60;;;1.70;;
54871;SDS011;43914;57.680;11.982;2023-02-04T13:55:59;8.30;;;2.00;;
54871;SDS011;43914;57.680;11.982;2023-02-04T13:58:25;6.40;;;1.80;;
54871;SDS011;43914;57.680;11.982;2023-02-04T14:00:52;6.80;;;1.60;;
54871;SDS011;43914;57.680;11.982;2023-02-04T14:03:24;7.20;;;2.10;;
54871;SDS011;43914;57.680;11.982;2023-02-04T14:05:51;7.30;;;1.80;;
54871;SDS011;43914;57.680;11.982;2023-02-04T14:08:20;6.20;;;1.80;;
54871;SDS011;43914;57.680;11.982;2023-02-04T14:10:47;7.20;;;1.80;;
54871;SDS011;43914;57.680;11.982;2023-02-04T14:13:12;7.50;;;2.00;;
54871;SDS011;43914;57.680;11.982;2023-02-04T14:15:38;6.90;;;2.00;;
54871;SDS011;43914;57.680;11.982;2023-02-04T14:18:08;6.30;;;1.60;;
54871;SDS011;43914;57.680;11.982;2023-02-04T14:20:34;5.50;;;1.70;;
54871;SDS011;43914;57.680;11.982;2023-02-04T14:23:00;8.10;;;2.10;;
54871;SDS011;43914;57.680;11.982;2023-02-04T14:25:26;7.10;;;1.80;;
54871;SDS011;43914;57.680;11.982;2023-02-04T14:27:52;7.90;;;2.10;;
54871;SDS011;43914;57.680;11.982;2023-02-04T14:30:18;6.80;;;1.80;;
54871;SDS011;43914;57.680;11.982;2023-02-04T14:32:45;7.40;;;1.90;;
54871;SDS011;43914;57.680;11.982;2023-02-04T14:35:12;9.10;;;2.80;;
54871;SDS011;43914;57.680;11.982;2023-02-04T14:37:38;8.80;;;2.60;;
54871;SDS011;43914;57.680;11.982;2023-02-04T14:40:04;9.00;;;2.40;;
54871;SDS011;43914;57.680;11.982;2023-02-04T14:42:30;8.80;;;2.50;;
54871;SDS011;43914;57.680;11.982;2023-02-04T14:44:56;7.60;;;2.40;;
54871;SDS011;43914;57.680;11.982;2023-02-04T14:47:22;6.60;;;2.10;;
54871;SDS011;43914;57.680;11.982;2023-02-04T14:49:47;7.30;;;2.30;;
54871;SDS011;43914;57.680;11.982;2023-02-04T14:52:13;6.30;;;1.80;;
54871;SDS011;43914;57.680;11.982;2023-02-04T14:54:40;7.70;;;2.20;;
54871;SDS011;43914;57.680;11.982;2023-02-04T14:57:06;6.70;;;2.00;;